Time;durP1;ratioP1;P1;durP2;ratioP2;P2;SDS_P1;SDS_P2;PMS_P1;PMS_P2;Temp;Humidity;BMP_temperature;BMP_pressure;BME280_temperature;BME280_humidity;BME280_pressure;Samples;Min_cycle;Max_cycle;Signal;HPM_P1;HPM_P2
2022/03/16 00:00:52;;;;;;;3.80;3.28;;;6.10;99.90;;;;;;2066208;28;20895;-72
2022/03/16 00:01:54;;;;;;;6.07;3.80;;;6.10;99.90;;;;;;2066313;28;20252;-72
2022/03/16 00:02:55;;;;;;;5.13;3.15;;;6.10;99.90;;;;;;2067144;28;20927;-72
2022/03/16 00:03:55;;;;;;;4.97;3.00;;;6.10;99.90;;;;;;2067144;28;20193;-72
2022/03/16 00:04:56;;;;;;;6.27;3.27;;;6.10;99.90;;;;;;2066739;28;20178;-72
2022/03/16 00:05:57;;;;;;;4.33;3.10;;;6.10;99.90;;;;;;2066977;28;20237;-71
2022/03/16 00:06:57;;;;;;;5.70;3.37;;;6.10;99.90;;;;;;2065718;28;20194;-72
2022/03/16 00:07:58;;;;;;;8.83;3.00;;;6.10;99.90;;;;;;2058028;28;20181;-72
2022/03/16 00:08:59;;;;;;;5.67;2.70;;;6.10;99.90;;;;;;2066303;28;20190;-72
2022/03/16 00:09:59;;;;;;;5.67;3.03;;;6.10;99.90;;;;;;2066821;28;20174;-72
2022/03/16 00:11:00;;;;;;;4.70;2.87;;;6.20;99.90;;;;;;2058341;28;20187;-72
2022/03/16 00:12:01;;;;;;;8.47;3.67;;;6.20;99.90;;;;;;2049888;28;20268;-72
2022/03/16 00:13:01;;;;;;;5.47;3.30;;;6.10;99.90;;;;;;2065697;28;20241;-73
2022/03/16 00:14:02;;;;;;;5.47;3.23;;;6.00;99.90;;;;;;2057990;28;20201;-72
2022/03/16 00:15:04;;;;;;;6.37;4.00;;;5.90;99.90;;;;;;2058592;28;20195;-72
2022/03/16 00:16:05;;;;;;;5.80;3.28;;;5.90;99.90;;;;;;2065904;28;20190;-72
2022/03/16 00:17:07;;;;;;;6.60;4.20;;;5.80;99.90;;;;;;2065752;28;20739;-72
2022/03/16 00:18:07;;;;;;;5.00;3.25;;;5.80;99.90;;;;;;2058075;28;20198;-73
2022/03/16 00:19:08;;;;;;;6.83;3.30;;;5.80;99.90;;;;;;2066266;28;20186;-73
2022/03/16 00:20:09;;;;;;;5.80;4.00;;;5.80;99.90;;;;;;2065651;28;20182;-73
2022/03/16 00:21:10;;;;;;;6.45;3.83;;;5.80;99.90;;;;;;2065291;28;20595;-72
2022/03/16 00:22:11;;;;;;;6.03;3.67;;;5.80;99.90;;;;;;2066037;28;20233;-71
2022/03/16 00:23:11;;;;;;;6.27;3.17;;;5.70;99.90;;;;;;2058305;28;20202;-73
2022/03/16 00:24:12;;;;;;;8.30;3.50;;;5.70;99.90;;;;;;2057879;28;20189;-72
2022/03/16 00:25:13;;;;;;;6.40;3.13;;;5.70;99.90;;;;;;2066058;28;20215;-72
2022/03/16 00:26:13;;;;;;;6.47;3.63;;;5.80;99.90;;;;;;2067038;28;20197;-73
2022/03/16 00:27:14;;;;;;;9.90;3.93;;;5.90;99.90;;;;;;2066930;28;20192;-73
2022/03/16 00:28:15;;;;;;;6.93;3.50;;;5.90;99.90;;;;;;2065930;28;20194;-73
2022/03/16 00:29:16;;;;;;;5.40;3.30;;;5.80;99.90;;;;;;2058191;28;20182;-73
2022/03/16 00:30:16;;;;;;;8.57;3.27;;;5.70;99.90;;;;;;2058032;28;20178;-73
2022/03/16 00:31:17;;;;;;;5.10;2.93;;;5.60;99.90;;;;;;2065332;28;20280;-73
2022/03/16 00:32:18;;;;;;;4.33;3.13;;;5.60;99.90;;;;;;2073735;28;20197;-74
2022/03/16 00:33:19;;;;;;;4.20;3.10;;;5.70;99.90;;;;;;2074629;28;20621;-73
2022/03/16 00:34:19;;;;;;;6.22;3.15;;;5.60;99.90;;;;;;2058268;28;20191;-73
2022/03/16 00:35:20;;;;;;;5.70;3.50;;;5.50;99.90;;;;;;2049956;28;20192;-74
2022/03/16 00:36:21;;;;;;;4.73;3.40;;;5.50;99.90;;;;;;2058027;28;20200;-73
2022/03/16 00:37:22;;;;;;;5.47;3.10;;;5.50;99.90;;;;;;2058060;28;20257;-73
2022/03/16 00:38:23;;;;;;;7.43;3.40;;;5.50;99.90;;;;;;2057851;28;20214;-73
2022/03/16 00:39:24;;;;;;;4.73;3.00;;;5.50;99.90;;;;;;2065984;28;20607;-73
2022/03/16 00:40:25;;;;;;;5.77;3.43;;;5.60;99.90;;;;;;2066019;28;20603;-73
2022/03/16 00:41:25;;;;;;;7.73;3.87;;;5.60;99.90;;;;;;2065680;28;20199;-74
2022/03/16 00:42:26;;;;;;;4.23;3.07;;;5.50;99.90;;;;;;2057933;28;20568;-73
2022/03/16 00:43:27;;;;;;;5.03;3.30;;;5.50;99.90;;;;;;2066062;28;20171;-73
2022/03/16 00:44:28;;;;;;;5.97;3.30;;;5.50;99.90;;;;;;2074162;28;20184;-73
2022/03/16 00:45:29;;;;;;;5.75;3.78;;;5.40;99.90;;;;;;2066538;28;20185;-73
2022/03/16 00:46:29;;;;;;;9.63;3.80;;;5.40;99.90;;;;;;2058181;28;20194;-73
2022/03/16 00:47:30;;;;;;;7.97;4.07;;;5.40;99.90;;;;;;2057678;28;20221;-74
2022/03/16 00:48:31;;;;;;;6.17;3.40;;;5.40;99.90;;;;;;2058338;28;20191;-73
2022/03/16 00:49:32;;;;;;;5.93;3.60;;;5.40;99.90;;;;;;2058140;28;20190;-73
2022/03/16 00:50:34;;;;;;;6.10;3.45;;;5.40;99.90;;;;;;2066376;28;20193;-73
2022/03/16 00:51:36;;;;;;;5.38;3.40;;;5.40;99.90;;;;;;2073446;28;20189;-73
2022/03/16 00:52:36;;;;;;;4.72;3.63;;;5.40;99.90;;;;;;2066101;28;20559;-73
2022/03/16 00:53:39;;;;;;;4.73;3.10;;;5.50;99.90;;;;;;2066272;28;20196;-73
2022/03/16 00:54:40;;;;;;;6.50;3.70;;;5.40;99.90;;;;;;2066344;28;20193;-73
2022/03/16 00:55:40;;;;;;;7.30;3.43;;;5.40;99.90;;;;;;2065859;28;20185;-73
2022/03/16 00:56:41;;;;;;;5.57;3.80;;;5.40;99.90;;;;;;2066786;28;20540;-73
2022/03/16 00:57:42;;;;;;;4.80;3.40;;;5.40;99.90;;;;;;2066733;28;20182;-73
2022/03/16 00:58:42;;;;;;;5.90;3.30;;;5.40;99.90;;;;;;2066850;28;20216;-73
2022/03/16 00:59:43;;;;;;;7.37;3.60;;;5.40;99.90;;;;;;2066370;28;20186;-73
2022/03/16 01:00:44;;;;;;;7.40;3.77;;;5.40;99.90;;;;;;2065418;28;20185;-72
2022/03/16 01:01:44;;;;;;;4.93;3.30;;;5.40;99.90;;;;;;2065462;28;20747;-74
2022/03/16 01:02:45;;;;;;;8.13;3.73;;;5.30;99.90;;;;;;2057787;28;20743;-73
2022/03/16 01:03:46;;;;;;;7.47;3.50;;;5.30;99.90;;;;;;2049721;28;20948;-73
2022/03/16 01:04:46;;;;;;;5.20;3.17;;;5.30;99.90;;;;;;2066048;28;20189;-72
2022/03/16 01:05:47;;;;;;;4.70;3.57;;;5.30;99.90;;;;;;2066016;28;20181;-74
2022/03/16 01:06:48;;;;;;;5.73;3.40;;;5.30;99.90;;;;;;2066626;28;20173;-73
2022/03/16 01:07:48;;;;;;;6.73;3.27;;;5.30;99.90;;;;;;2066033;28;20186;-72
2022/03/16 01:08:49;;;;;;;8.50;3.07;;;5.20;99.90;;;;;;2065993;28;20181;-73
2022/03/16 01:09:50;;;;;;;4.87;3.33;;;5.20;99.90;;;;;;2074106;28;20186;-74
2022/03/16 01:10:51;;;;;;;4.93;3.33;;;5.20;99.90;;;;;;2066208;28;20183;-73
2022/03/16 01:11:51;;;;;;;5.53;2.93;;;5.20;99.90;;;;;;2065255;28;20225;-72
2022/03/16 01:12:53;;;;;;;8.17;3.50;;;5.20;99.90;;;;;;2065746;28;20210;-72
2022/03/16 01:13:54;;;;;;;6.50;3.58;;;5.20;99.90;;;;;;2066047;28;20186;-73
2022/03/16 01:14:54;;;;;;;6.07;3.13;;;5.20;99.90;;;;;;2065788;28;20186;-72
2022/03/16 01:15:55;;;;;;;3.80;2.83;;;5.20;99.90;;;;;;2066155;28;20796;-74
2022/03/16 01:16:56;;;;;;;5.37;3.20;;;5.20;99.90;;;;;;2066018;28;20653;-73
2022/03/16 01:17:56;;;;;;;4.20;2.90;;;5.10;99.90;;;;;;2066075;28;20196;-72
2022/03/16 01:18:57;;;;;;;6.70;3.50;;;5.10;99.90;;;;;;2074029;28;20217;-72
2022/03/16 01:19:58;;;;;;;4.60;3.27;;;5.20;99.90;;;;;;2073901;28;20193;-72
2022/03/16 01:20:58;;;;;;;5.00;3.30;;;5.10;99.90;;;;;;2074035;28;20252;-73
2022/03/16 01:22:00;;;;;;;4.83;3.27;;;5.10;99.90;;;;;;2065037;28;20186;-73
2022/03/16 01:23:01;;;;;;;5.03;3.20;;;5.10;99.90;;;;;;2065640;28;20312;-73
2022/03/16 01:24:02;;;;;;;5.80;3.50;;;5.10;99.90;;;;;;2065880;28;20216;-72
2022/03/16 01:25:02;;;;;;;6.90;3.17;;;5.10;99.90;;;;;;2065864;28;20300;-72
2022/03/16 01:26:04;;;;;;;7.80;3.10;;;5.20;99.90;;;;;;2073986;28;20197;-72
2022/03/16 01:27:05;;;;;;;4.93;3.35;;;5.20;99.90;;;;;;2065831;28;20213;-73
2022/03/16 01:28:06;;;;;;;6.03;3.40;;;5.20;99.90;;;;;;2065969;28;20189;-73
2022/03/16 01:29:06;;;;;;;6.33;3.33;;;5.20;99.90;;;;;;2074116;28;20304;-73
2022/03/16 01:30:08;;;;;;;8.17;3.67;;;5.20;99.90;;;;;;2073758;28;20185;-72
2022/03/16 01:31:08;;;;;;;6.47;3.55;;;5.20;99.90;;;;;;2072743;28;20185;-74
2022/03/16 01:32:09;;;;;;;5.67;3.40;;;5.20;99.90;;;;;;2073740;28;20186;-72
2022/03/16 01:33:10;;;;;;;6.80;3.60;;;5.20;99.90;;;;;;2066273;28;20208;-71
2022/03/16 01:34:10;;;;;;;8.43;3.80;;;5.20;99.90;;;;;;2065988;28;20189;-72
2022/03/16 01:35:11;;;;;;;7.37;4.17;;;5.20;99.90;;;;;;2065596;28;20217;-72
2022/03/16 01:36:12;;;;;;;4.87;3.43;;;5.20;99.90;;;;;;2065907;28;20205;-73
2022/03/16 01:37:13;;;;;;;7.43;3.23;;;5.20;99.90;;;;;;2057543;28;20741;-73
2022/03/16 01:38:13;;;;;;;6.07;3.63;;;5.20;99.90;;;;;;2065625;28;20580;-72
2022/03/16 01:39:15;;;;;;;6.50;3.60;;;5.20;99.90;;;;;;2057435;28;20186;-73
2022/03/16 01:40:15;;;;;;;6.18;3.50;;;5.20;99.90;;;;;;2057707;28;20183;-73
2022/03/16 01:41:16;;;;;;;9.07;3.40;;;5.20;99.90;;;;;;2056852;28;20616;-73
2022/03/16 01:42:17;;;;;;;5.73;3.67;;;5.20;99.90;;;;;;2057843;28;20190;-73
2022/03/16 01:43:18;;;;;;;8.40;4.17;;;5.10;99.90;;;;;;2066162;28;20192;-73
2022/03/16 01:44:48;;;;;;;4.30;3.33;;;5.10;99.90;;;;;;2074009;28;20563;-73
2022/03/16 01:45:50;;;;;;;5.20;3.40;;;5.10;99.90;;;;;;2057657;28;20193;-73
2022/03/16 01:46:51;;;;;;;6.45;3.97;;;5.10;99.90;;;;;;2049884;28;20183;-73
2022/03/16 01:47:52;;;;;;;5.17;3.50;;;5.10;99.90;;;;;;2065619;28;20281;-73
2022/03/16 01:48:53;;;;;;;7.73;3.47;;;5.10;99.90;;;;;;2073923;28;20189;-73
2022/03/16 01:49:55;;;;;;;5.75;3.72;;;5.10;99.90;;;;;;2065760;28;20268;-73
2022/03/16 01:50:56;;;;;;;7.32;4.22;;;5.20;99.90;;;;;;2057260;28;20492;-73
2022/03/16 01:51:57;;;;;;;6.78;3.67;;;5.20;99.90;;;;;;2064929;28;20209;-73
2022/03/16 01:52:58;;;;;;;8.70;4.00;;;5.10;99.90;;;;;;2065902;28;20226;-72
2022/03/16 01:53:59;;;;;;;4.77;3.57;;;5.10;99.90;;;;;;2057789;28;20628;-72
2022/03/16 01:55:04;;;;;;;6.78;3.35;;;5.10;99.90;;;;;;2057943;28;20182;-73
2022/03/16 01:56:05;;;;;;;8.98;3.95;;;5.10;99.90;;;;;;2058414;28;20167;-73
2022/03/16 01:57:09;;;;;;;7.97;3.70;;;5.10;99.90;;;;;;2065939;28;20196;-72
2022/03/16 01:58:10;;;;;;;7.50;4.18;;;5.20;99.90;;;;;;2065721;28;20188;-73
2022/03/16 01:59:11;;;;;;;7.88;4.15;;;5.20;99.90;;;;;;2064920;28;20185;-73
2022/03/16 02:00:13;;;;;;;8.20;3.73;;;5.10;99.90;;;;;;2065416;28;20283;-73
2022/03/16 02:01:14;;;;;;;6.03;3.63;;;5.00;99.90;;;;;;2057223;28;20280;-73
2022/03/16 02:02:16;;;;;;;6.20;4.18;;;4.90;99.90;;;;;;2065484;28;20210;-73
2022/03/16 02:03:16;;;;;;;6.70;3.92;;;4.90;99.90;;;;;;2065051;28;20336;-73
2022/03/16 02:04:17;;;;;;;6.53;3.63;;;4.90;99.90;;;;;;2065544;28;20178;-73
2022/03/16 02:05:18;;;;;;;10.07;3.70;;;4.90;99.90;;;;;;2073538;28;20181;-73
2022/03/16 02:06:19;;;;;;;6.73;3.50;;;4.90;99.90;;;;;;2065708;28;20181;-73
2022/03/16 02:07:19;;;;;;;6.60;4.20;;;4.90;99.90;;;;;;2065739;28;20202;-73
2022/03/16 02:08:20;;;;;;;6.27;4.03;;;4.90;99.90;;;;;;2065356;28;20185;-73
2022/03/16 02:09:23;;;;;;;6.27;3.70;;;4.90;99.90;;;;;;2057610;28;20178;-74
2022/03/16 02:10:25;;;;;;;5.90;3.65;;;5.00;99.90;;;;;;2065506;28;20192;-73
2022/03/16 02:11:25;;;;;;;5.78;4.00;;;4.90;99.90;;;;;;2072467;28;20188;-73
2022/03/16 02:12:26;;;;;;;5.40;4.03;;;4.80;99.90;;;;;;2065395;28;20177;-73
2022/03/16 02:13:27;;;;;;;7.70;4.50;;;4.80;99.90;;;;;;2057633;28;20190;-74
2022/03/16 02:14:31;;;;;;;10.45;3.88;;;4.80;99.90;;;;;;2065713;28;20275;-74
2022/03/16 02:15:32;;;;;;;5.53;3.38;;;4.80;99.90;;;;;;2065931;28;20280;-73
2022/03/16 02:16:34;;;;;;;9.20;3.40;;;4.80;99.90;;;;;;2065055;28;20209;-73
2022/03/16 02:17:35;;;;;;;5.45;3.53;;;4.80;99.90;;;;;;2057500;28;20310;-73
2022/03/16 02:18:35;;;;;;;8.18;3.92;;;4.80;99.90;;;;;;2057674;28;20232;-73
2022/03/16 02:19:36;;;;;;;6.03;3.77;;;4.80;99.90;;;;;;2057306;28;20198;-73
2022/03/16 02:20:37;;;;;;;6.87;3.57;;;4.70;99.90;;;;;;2057317;28;20182;-73
2022/03/16 02:21:43;;;;;;;6.10;3.63;;;4.70;99.90;;;;;;2056934;28;20185;-73
2022/03/16 02:23:05;;;;;;;7.30;3.22;;;4.60;99.90;;;;;;2065260;28;20211;-73
2022/03/16 02:24:06;;;;;;;6.38;3.30;;;4.60;99.90;;;;;;2065672;28;20185;-73
2022/03/16 02:25:09;;;;;;;5.97;3.95;;;4.50;99.90;;;;;;2057688;28;20187;-72
2022/03/16 02:26:14;;;;;;;6.28;3.95;;;4.50;99.90;;;;;;2057648;28;20186;-73
2022/03/16 02:27:15;;;;;;;8.80;4.10;;;4.50;99.90;;;;;;2057893;28;20187;-72
2022/03/16 02:28:18;;;;;;;8.10;3.72;;;4.60;99.90;;;;;;2065397;28;20189;-73
2022/03/16 02:29:18;;;;;;;5.97;3.38;;;4.60;99.90;;;;;;2065200;28;20177;-71
2022/03/16 02:30:28;;;;;;;7.17;4.07;;;4.60;99.90;;;;;;2065439;28;20194;-71
2022/03/16 02:31:29;;;;;;;4.60;3.40;;;4.70;99.90;;;;;;2065325;28;20194;-72
2022/03/16 02:32:29;;;;;;;5.80;3.47;;;4.70;99.90;;;;;;2065091;28;20639;-73
2022/03/16 02:33:30;;;;;;;6.10;3.70;;;4.70;99.90;;;;;;2065422;28;20515;-72
2022/03/16 02:34:31;;;;;;;5.57;3.40;;;4.60;99.90;;;;;;2065430;28;20237;-72
2022/03/16 02:35:32;;;;;;;7.03;3.43;;;4.70;99.90;;;;;;2065355;28;20358;-73
2022/03/16 02:36:32;;;;;;;7.53;3.87;;;4.70;99.90;;;;;;2065766;28;20228;-73
2022/03/16 02:37:38;;;;;;;5.43;3.83;;;4.60;99.90;;;;;;2066020;28;20185;-72
2022/03/16 02:38:38;;;;;;;6.47;3.65;;;4.60;99.90;;;;;;2065207;28;20205;-73
2022/03/16 02:39:39;;;;;;;8.33;4.03;;;4.70;99.90;;;;;;2057237;28;20228;-74
2022/03/16 02:40:40;;;;;;;5.93;3.30;;;4.70;99.90;;;;;;2065530;28;20268;-74
2022/03/16 02:41:47;;;;;;;8.05;4.32;;;4.70;99.90;;;;;;2072783;28;20181;-73
2022/03/16 02:42:48;;;;;;;7.10;3.90;;;4.70;99.90;;;;;;2065445;28;20299;-74
2022/03/16 02:43:48;;;;;;;6.97;3.90;;;4.70;99.90;;;;;;2065381;28;20182;-74
2022/03/16 02:44:49;;;;;;;5.67;3.97;;;4.70;99.90;;;;;;2065294;28;20188;-73
2022/03/16 02:45:50;;;;;;;7.50;3.70;;;4.60;99.90;;;;;;2064762;28;20177;-73
2022/03/16 02:46:51;;;;;;;7.53;4.13;;;4.70;99.90;;;;;;2057110;28;20217;-73
2022/03/16 02:47:51;;;;;;;5.57;3.97;;;4.70;99.90;;;;;;2057213;28;20193;-73
2022/03/16 02:48:52;;;;;;;8.33;4.10;;;4.70;99.90;;;;;;2065149;28;20187;-74
2022/03/16 02:49:53;;;;;;;5.00;3.57;;;4.70;99.90;;;;;;2057313;28;20242;-74
2022/03/16 02:50:54;;;;;;;8.13;3.50;;;4.70;99.90;;;;;;2065415;28;20185;-73
2022/03/16 02:51:56;;;;;;;7.60;3.93;;;4.70;99.90;;;;;;2064417;28;20573;-72
2022/03/16 02:52:57;;;;;;;11.23;4.15;;;4.80;99.90;;;;;;2065245;28;20208;-72
2022/03/16 02:53:58;;;;;;;5.13;3.67;;;4.80;99.90;;;;;;2064987;28;20268;-72
2022/03/16 02:54:58;;;;;;;6.43;3.90;;;4.70;99.90;;;;;;2065545;28;20213;-72
2022/03/16 02:55:59;;;;;;;6.47;4.07;;;4.80;99.90;;;;;;2073398;28;20191;-74
2022/03/16 02:57:00;;;;;;;7.27;4.07;;;4.80;99.90;;;;;;2066277;28;20193;-73
2022/03/16 02:58:01;;;;;;;9.32;4.00;;;4.90;99.90;;;;;;2065409;28;20551;-73
2022/03/16 02:59:02;;;;;;;6.10;3.70;;;4.90;99.90;;;;;;2057241;28;20214;-73
2022/03/16 03:00:06;;;;;;;5.38;3.72;;;4.90;99.90;;;;;;2057145;28;20627;-72
2022/03/16 03:01:07;;;;;;;4.90;3.72;;;4.90;99.90;;;;;;2064725;28;20189;-72
2022/03/16 03:02:07;;;;;;;7.57;3.70;;;4.80;99.90;;;;;;2065786;28;20544;-73
2022/03/16 03:03:08;;;;;;;8.13;4.00;;;4.80;99.90;;;;;;2065246;28;20197;-73
2022/03/16 03:04:09;;;;;;;6.83;3.70;;;4.80;99.90;;;;;;2056781;28;20208;-73
2022/03/16 03:05:09;;;;;;;6.90;3.67;;;4.80;99.90;;;;;;2063517;28;20297;-73
2022/03/16 03:06:10;;;;;;;9.87;4.10;;;4.80;99.90;;;;;;2065687;28;20207;-74
2022/03/16 03:07:11;;;;;;;6.43;4.20;;;4.80;99.90;;;;;;2065416;28;20216;-73
2022/03/16 03:08:11;;;;;;;5.70;4.13;;;4.80;99.90;;;;;;2065333;28;20304;-74
2022/03/16 03:09:12;;;;;;;7.90;3.63;;;4.80;99.90;;;;;;2065816;28;20193;-72
2022/03/16 03:10:13;;;;;;;6.63;3.40;;;4.80;99.90;;;;;;2057902;28;20189;-73
2022/03/16 03:11:14;;;;;;;6.63;4.00;;;4.80;99.90;;;;;;2058202;28;20254;-73
2022/03/16 03:12:15;;;;;;;9.60;4.35;;;4.70;99.90;;;;;;2067415;28;20690;-72
2022/03/16 03:13:16;;;;;;;5.97;3.87;;;4.70;99.90;;;;;;2067182;28;20186;-73
2022/03/16 03:14:16;;;;;;;7.63;3.63;;;4.70;99.90;;;;;;2067475;28;20236;-73
2022/03/16 03:15:17;;;;;;;6.17;3.63;;;4.70;99.90;;;;;;2067377;28;20177;-73
2022/03/16 03:16:18;;;;;;;9.47;3.77;;;4.70;99.90;;;;;;2066585;28;20184;-73
2022/03/16 03:17:19;;;;;;;5.67;3.63;;;4.70;99.90;;;;;;2050721;29;20194;-72
2022/03/16 03:18:19;;;;;;;8.40;4.20;;;4.70;99.90;;;;;;2058390;28;20273;-73
2022/03/16 03:19:23;;;;;;;10.17;3.90;;;4.70;99.90;;;;;;2049999;28;20201;-73
2022/03/16 03:20:24;;;;;;;7.40;4.13;;;4.60;99.90;;;;;;2051752;28;20193;-72
2022/03/16 03:21:25;;;;;;;6.20;4.23;;;4.60;99.90;;;;;;2066251;28;20276;-73
2022/03/16 03:22:27;;;;;;;5.70;3.40;;;4.60;99.90;;;;;;2075068;28;20208;-73
2022/03/16 03:23:28;;;;;;;7.35;4.03;;;4.70;99.90;;;;;;2066778;28;20175;-73
2022/03/16 03:24:29;;;;;;;7.70;4.30;;;4.60;99.90;;;;;;2058693;28;20193;-72
2022/03/16 03:25:29;;;;;;;5.53;3.60;;;4.60;99.90;;;;;;2058722;28;20217;-73
2022/03/16 03:26:32;;;;;;;7.87;4.00;;;4.60;99.90;;;;;;2066907;28;20286;-72
2022/03/16 03:27:33;;;;;;;8.35;4.05;;;4.70;99.90;;;;;;2074778;28;20247;-72
2022/03/16 03:28:33;;;;;;;5.73;3.87;;;4.60;99.90;;;;;;2067654;28;20197;-72
2022/03/16 03:29:34;;;;;;;5.13;4.10;;;4.60;99.90;;;;;;2067499;28;20186;-72
2022/03/16 03:30:35;;;;;;;8.73;4.27;;;4.60;99.90;;;;;;2066885;28;20193;-73
2022/03/16 03:31:35;;;;;;;8.80;4.40;;;4.50;99.90;;;;;;2057719;28;20201;-72
2022/03/16 03:32:36;;;;;;;9.03;4.33;;;4.50;99.90;;;;;;2066544;28;20224;-73
2022/03/16 03:33:37;;;;;;;10.10;3.70;;;4.50;99.90;;;;;;2066454;28;20183;-72
2022/03/16 03:34:39;;;;;;;6.53;3.97;;;4.50;99.90;;;;;;2074954;28;20536;-73
2022/03/16 03:35:39;;;;;;;7.68;4.38;;;4.60;99.90;;;;;;2066712;28;20181;-72
2022/03/16 03:36:41;;;;;;;9.57;4.23;;;4.60;99.90;;;;;;2066848;28;20201;-73
2022/03/16 03:37:42;;;;;;;7.13;4.43;;;4.50;99.90;;;;;;2057857;28;20221;-73
2022/03/16 03:38:42;;;;;;;7.37;4.20;;;4.50;99.90;;;;;;2050776;29;20221;-74
2022/03/16 03:39:43;;;;;;;6.83;4.10;;;4.40;99.90;;;;;;2058760;28;20182;-74
2022/03/16 03:40:44;;;;;;;6.43;3.67;;;4.40;99.90;;;;;;2066669;28;20231;-74
2022/03/16 03:41:45;;;;;;;6.07;3.87;;;4.40;99.90;;;;;;2074338;28;20176;-73
2022/03/16 03:42:45;;;;;;;6.83;4.23;;;4.40;99.90;;;;;;2075076;28;20211;-73
2022/03/16 03:43:46;;;;;;;7.63;3.97;;;4.40;99.90;;;;;;2066782;28;20174;-72
2022/03/16 03:44:47;;;;;;;8.87;4.20;;;4.40;99.90;;;;;;2066814;28;20172;-73
2022/03/16 03:45:47;;;;;;;6.23;3.83;;;4.40;99.90;;;;;;2074704;28;20187;-73
2022/03/16 03:46:48;;;;;;;5.80;3.90;;;4.40;99.90;;;;;;2067397;28;20177;-73
2022/03/16 03:47:49;;;;;;;7.83;3.90;;;4.40;99.90;;;;;;2066588;28;20181;-73
2022/03/16 03:48:49;;;;;;;7.67;4.30;;;4.40;99.90;;;;;;2058754;28;20874;-73
2022/03/16 03:49:50;;;;;;;6.87;4.10;;;4.40;99.90;;;;;;2066606;28;20603;-73
2022/03/16 03:50:51;;;;;;;5.87;3.63;;;4.40;99.90;;;;;;2066745;28;20189;-72
2022/03/16 03:51:51;;;;;;;6.33;4.10;;;4.30;99.90;;;;;;2058131;28;20185;-73
2022/03/16 03:52:52;;;;;;;8.20;4.37;;;4.30;99.90;;;;;;2066548;28;20244;-73
2022/03/16 03:53:52;;;;;;;11.77;4.13;;;4.30;99.90;;;;;;2066580;28;20667;-72
2022/03/16 03:54:53;;;;;;;5.23;4.10;;;4.30;99.90;;;;;;2058148;28;20724;-73
2022/03/16 03:55:54;;;;;;;5.53;3.97;;;4.30;99.90;;;;;;2066558;28;20216;-73
2022/03/16 03:56:55;;;;;;;6.67;4.30;;;4.30;99.90;;;;;;2057626;28;20798;-73
2022/03/16 03:57:57;;;;;;;5.03;3.60;;;4.30;99.90;;;;;;2058409;28;20206;-73
2022/03/16 03:58:57;;;;;;;5.45;3.85;;;4.30;99.90;;;;;;2066736;28;20202;-73
2022/03/16 03:59:58;;;;;;;7.77;3.60;;;4.30;99.90;;;;;;2067503;28;20187;-73
2022/03/16 04:00:59;;;;;;;6.03;4.43;;;4.30;99.90;;;;;;2066715;28;20687;-73
2022/03/16 04:02:00;;;;;;;7.27;4.00;;;4.30;99.90;;;;;;2066001;28;20666;-73
2022/03/16 04:03:00;;;;;;;5.50;4.10;;;4.20;99.90;;;;;;2074721;28;20200;-73
2022/03/16 04:04:01;;;;;;;6.10;4.27;;;4.20;99.90;;;;;;2067046;28;20641;-73
2022/03/16 04:05:03;;;;;;;6.47;4.50;;;4.20;99.90;;;;;;2066346;28;20577;-73
2022/03/16 04:06:04;;;;;;;8.40;4.20;;;4.20;99.90;;;;;;2058835;28;20181;-74
2022/03/16 04:07:05;;;;;;;7.90;4.63;;;4.20;99.90;;;;;;2058672;28;20178;-73
2022/03/16 04:08:06;;;;;;;8.17;3.93;;;4.20;99.90;;;;;;2058831;28;20188;-73
2022/03/16 04:09:06;;;;;;;8.07;4.30;;;4.10;99.90;;;;;;2058239;28;20650;-73
2022/03/16 04:10:08;;;;;;;8.00;4.50;;;4.10;99.90;;;;;;2050277;28;20222;-73
2022/03/16 04:11:09;;;;;;;6.88;4.50;;;4.10;99.90;;;;;;2049889;28;20201;-73
2022/03/16 04:12:10;;;;;;;5.15;4.18;;;4.10;99.90;;;;;;2058747;28;20191;-73
2022/03/16 04:13:11;;;;;;;6.00;4.23;;;4.10;99.90;;;;;;2066483;28;20201;-73
2022/03/16 04:14:12;;;;;;;7.40;4.57;;;4.10;99.90;;;;;;2066643;28;20182;-73
2022/03/16 04:15:13;;;;;;;7.93;4.45;;;4.10;99.90;;;;;;2066328;28;20723;-73
2022/03/16 04:16:13;;;;;;;7.80;4.27;;;4.20;99.90;;;;;;2066630;28;20255;-73
2022/03/16 04:17:14;;;;;;;10.53;3.77;;;4.20;99.90;;;;;;2066860;28;20587;-73
2022/03/16 04:18:15;;;;;;;7.47;4.27;;;4.20;99.90;;;;;;2066975;28;20207;-73
2022/03/16 04:19:16;;;;;;;8.77;3.97;;;4.20;99.90;;;;;;2073707;28;20195;-74
2022/03/16 04:20:17;;;;;;;7.90;4.20;;;4.20;99.90;;;;;;2066495;28;20208;-73
2022/03/16 04:21:17;;;;;;;8.97;4.20;;;4.20;99.90;;;;;;2057818;28;20185;-73
2022/03/16 04:22:18;;;;;;;7.17;3.80;;;4.20;99.90;;;;;;2065882;28;20653;-73
2022/03/16 04:23:19;;;;;;;9.50;4.00;;;4.20;99.90;;;;;;2066296;28;20181;-73
2022/03/16 04:24:19;;;;;;;4.47;3.50;;;4.20;99.90;;;;;;2067395;28;20182;-73
2022/03/16 04:25:20;;;;;;;6.80;3.30;;;4.20;99.90;;;;;;2067094;28;20181;-73
2022/03/16 04:26:21;;;;;;;6.80;4.03;;;4.20;99.90;;;;;;2074527;28;20196;-73
2022/03/16 04:27:23;;;;;;;7.20;4.00;;;4.20;99.90;;;;;;2066475;28;20185;-73
2022/03/16 04:28:23;;;;;;;6.90;3.90;;;4.20;99.90;;;;;;2058228;28;20432;-73
2022/03/16 04:29:24;;;;;;;9.90;4.70;;;4.20;99.90;;;;;;2058413;28;20645;-72
2022/03/16 04:30:24;;;;;;;7.93;4.43;;;4.10;99.90;;;;;;2057896;28;20181;-74
2022/03/16 04:31:25;;;;;;;9.53;4.27;;;4.10;99.90;;;;;;2057569;28;20196;-73
2022/03/16 04:32:26;;;;;;;9.40;4.17;;;4.10;99.90;;;;;;2058096;28;20198;-73
2022/03/16 04:33:28;;;;;;;5.53;4.13;;;4.10;99.90;;;;;;2058649;28;20186;-72
2022/03/16 04:34:29;;;;;;;5.70;3.88;;;4.10;99.90;;;;;;2058409;28;20186;-74
2022/03/16 04:35:30;;;;;;;5.87;4.40;;;4.10;99.90;;;;;;2058362;28;20190;-73
2022/03/16 04:36:31;;;;;;;7.10;4.73;;;4.10;99.90;;;;;;2066259;28;20647;-73
2022/03/16 04:37:32;;;;;;;7.57;4.63;;;4.00;99.90;;;;;;2066309;28;20625;-71
2022/03/16 04:38:33;;;;;;;7.10;4.82;;;4.00;99.90;;;;;;2058166;28;20197;-74
2022/03/16 04:39:34;;;;;;;8.70;5.37;;;4.00;99.90;;;;;;2066307;28;20655;-73
2022/03/16 04:40:36;;;;;;;6.53;4.60;;;4.10;99.90;;;;;;2066937;28;20177;-72
2022/03/16 04:41:36;;;;;;;4.85;4.10;;;4.00;99.90;;;;;;2065821;28;20182;-72
2022/03/16 04:42:37;;;;;;;5.67;4.20;;;4.00;99.90;;;;;;2066233;28;20270;-73
2022/03/16 04:43:37;;;;;;;8.93;5.13;;;4.00;99.90;;;;;;2074211;28;20193;-73
2022/03/16 04:44:38;;;;;;;9.00;4.40;;;4.00;99.90;;;;;;2066108;28;20181;-73
2022/03/16 04:45:40;;;;;;;5.63;4.13;;;4.00;99.90;;;;;;2066501;28;20215;-73
2022/03/16 04:46:40;;;;;;;7.10;4.47;;;4.00;99.90;;;;;;2074282;28;20227;-73
2022/03/16 04:47:41;;;;;;;12.33;5.10;;;4.00;99.90;;;;;;2066435;28;20191;-73
2022/03/16 04:48:42;;;;;;;7.37;4.53;;;4.00;99.90;;;;;;2066247;28;20199;-72
2022/03/16 04:49:42;;;;;;;8.07;4.33;;;4.00;99.90;;;;;;2066838;28;20274;-72
2022/03/16 04:50:43;;;;;;;6.67;4.60;;;3.90;99.90;;;;;;2074307;28;20212;-72
2022/03/16 04:51:44;;;;;;;12.40;5.20;;;3.90;99.90;;;;;;2065789;28;20654;-72
2022/03/16 04:52:47;;;;;;;7.90;4.23;;;3.90;99.90;;;;;;2066618;28;20695;-72
2022/03/16 04:53:47;;;;;;;6.97;4.10;;;3.90;99.90;;;;;;2058451;28;20188;-72
2022/03/16 04:54:48;;;;;;;6.13;4.60;;;3.80;99.90;;;;;;2058561;28;20269;-72
2022/03/16 04:55:49;;;;;;;7.37;4.20;;;3.80;99.90;;;;;;2066367;28;20192;-73
2022/03/16 04:56:49;;;;;;;6.77;3.93;;;3.80;99.90;;;;;;2058298;28;20649;-73
2022/03/16 04:57:50;;;;;;;5.63;4.10;;;3.80;99.90;;;;;;2058180;28;20192;-73
2022/03/16 04:58:51;;;;;;;9.53;4.90;;;3.90;99.90;;;;;;2066036;28;20213;-73
2022/03/16 04:59:51;;;;;;;7.20;4.53;;;3.90;99.90;;;;;;2066984;28;20183;-73
2022/03/16 05:00:52;;;;;;;9.23;4.87;;;3.90;99.90;;;;;;2074066;28;20192;-73
2022/03/16 05:01:53;;;;;;;6.20;4.37;;;3.90;99.90;;;;;;2073837;28;20181;-73
2022/03/16 05:02:53;;;;;;;7.80;4.60;;;3.90;99.90;;;;;;2066617;28;20212;-73
2022/03/16 05:03:54;;;;;;;7.27;4.03;;;3.80;99.90;;;;;;2066485;28;20645;-74
2022/03/16 05:04:54;;;;;;;7.47;4.13;;;3.80;99.90;;;;;;2066792;28;20537;-73
2022/03/16 05:05:55;;;;;;;10.40;4.33;;;3.80;99.90;;;;;;2065973;28;20215;-73
2022/03/16 05:06:56;;;;;;;6.83;4.03;;;3.80;99.90;;;;;;2058255;28;20209;-74
2022/03/16 05:07:57;;;;;;;5.50;3.87;;;3.80;99.90;;;;;;2058162;28;20185;-74
2022/03/16 05:08:57;;;;;;;10.27;5.23;;;3.80;99.90;;;;;;2066206;28;20260;-74
2022/03/16 05:09:58;;;;;;;7.03;3.97;;;3.80;99.90;;;;;;2066224;28;20188;-74
2022/03/16 05:10:59;;;;;;;7.37;3.43;;;3.80;99.90;;;;;;2066166;28;20185;-74
2022/03/16 05:11:59;;;;;;;6.37;3.97;;;3.80;99.90;;;;;;2066048;28;20181;-73
2022/03/16 05:13:00;;;;;;;4.83;3.23;;;3.80;99.90;;;;;;2067084;28;20197;-74
2022/03/16 05:14:01;;;;;;;4.93;3.90;;;3.80;99.90;;;;;;2066032;28;20180;-74
2022/03/16 05:15:01;;;;;;;4.80;3.57;;;3.80;99.90;;;;;;2066246;28;20225;-74
2022/03/16 05:16:03;;;;;;;5.43;3.57;;;3.80;99.90;;;;;;2065995;28;20182;-74
2022/03/16 05:17:04;;;;;;;5.20;4.00;;;3.80;99.90;;;;;;2066231;28;20180;-73
2022/03/16 05:18:04;;;;;;;6.93;4.68;;;3.80;99.90;;;;;;2074072;28;20674;-74
2022/03/16 05:19:05;;;;;;;10.43;4.40;;;3.80;99.90;;;;;;2066622;28;20212;-73
2022/03/16 05:20:08;;;;;;;5.57;3.83;;;3.80;99.90;;;;;;2065992;28;20187;-73
2022/03/16 05:21:08;;;;;;;5.75;3.97;;;3.80;99.90;;;;;;2065112;28;20196;-74
2022/03/16 05:22:09;;;;;;;9.37;4.40;;;3.80;99.90;;;;;;2065390;28;20187;-74
2022/03/16 05:23:10;;;;;;;6.73;4.50;;;3.70;99.90;;;;;;2065947;28;20275;-74